sensor_id;sensor_type;location;lat;lon;timestamp;P1;durP1;ratioP1;P2;durP2;ratioP2
40953;SDS011;26686;50.130;8.710;2022-09-02T00:02:08;2.50;;;1.00;;
40953;SDS011;26686;50.130;8.710;2022-09-02T00:07:10;1.40;;;0.90;;
40953;SDS011;26686;50.130;8.710;2022-09-02T00:12:12;2.42;;;0.85;;
40953;SDS011;26686;50.130;8.710;2022-09-02T00:17:13;1.63;;;1.33;;
40953;SDS011;26686;50.130;8.710;2022-09-02T00:22:14;3.65;;;1.13;;
40953;SDS011;26686;50.130;8.710;2022-09-02T00:27:16;4.18;;;1.17;;
40953;SDS011;26686;50.130;8.710;2022-09-02T00:32:17;2.17;;;0.98;;
40953;SDS011;26686;50.130;8.710;2022-09-02T00:37:19;1.42;;;0.95;;
40953;SDS011;26686;50.130;8.710;2022-09-02T00:42:21;1.88;;;0.80;;
40953;SDS011;26686;50.130;8.710;2022-09-02T00:47:23;1.13;;;0.75;;
40953;SDS011;26686;50.130;8.710;2022-09-02T00:52:26;2.20;;;0.93;;
40953;SDS011;26686;50.130;8.710;2022-09-02T00:57:32;4.35;;;0.98;;
40953;SDS011;26686;50.130;8.710;2022-09-02T01:02:40;2.40;;;1.08;;
40953;SDS011;26686;50.130;8.710;2022-09-02T01:12:44;1.40;;;0.77;;
40953;SDS011;26686;50.130;8.710;2022-09-02T01:17:48;1.45;;;0.65;;
40953;SDS011;26686;50.130;8.710;2022-09-02T01:22:51;1.65;;;0.82;;
40953;SDS011;26686;50.130;8.710;2022-09-02T01:27:58;1.98;;;0.95;;
40953;SDS011;26686;50.130;8.710;2022-09-02T01:33:05;2.28;;;0.75;;
40953;SDS011;26686;50.130;8.710;2022-09-02T01:38:06;2.33;;;1.10;;
40953;SDS011;26686;50.130;8.710;2022-09-02T01:43:09;1.50;;;1.08;;
40953;SDS011;26686;50.130;8.710;2022-09-02T01:48:14;2.42;;;1.05;;
40953;SDS011;26686;50.130;8.710;2022-09-02T01:53:21;1.05;;;0.70;;
40953;SDS011;26686;50.130;8.710;2022-09-02T01:58:23;2.75;;;0.95;;
40953;SDS011;26686;50.130;8.710;2022-09-02T02:03:24;2.67;;;0.60;;
40953;SDS011;26686;50.130;8.710;2022-09-02T02:08:26;4.18;;;1.33;;
40953;SDS011;26686;50.130;8.710;2022-09-02T02:13:27;2.97;;;1.00;;
40953;SDS011;26686;50.130;8.710;2022-09-02T02:18:29;2.10;;;0.80;;
40953;SDS011;26686;50.130;8.710;2022-09-02T02:23:31;2.67;;;0.82;;
40953;SDS011;26686;50.130;8.710;2022-09-02T02:28:32;4.00;;;0.93;;
40953;SDS011;26686;50.130;8.710;2022-09-02T02:33:37;1.70;;;0.98;;
40953;SDS011;26686;50.130;8.710;2022-09-02T02:38:39;2.25;;;0.77;;
40953;SDS011;26686;50.130;8.710;2022-09-02T02:43:41;0.70;;;0.63;;
40953;SDS011;26686;50.130;8.710;2022-09-02T02:48:43;2.58;;;0.85;;
40953;SDS011;26686;50.130;8.710;2022-09-02T02:53:44;1.80;;;1.15;;
40953;SDS011;26686;50.130;8.710;2022-09-02T02:58:45;1.65;;;0.95;;
40953;SDS011;26686;50.130;8.710;2022-09-02T03:03:47;1.35;;;0.70;;
40953;SDS011;26686;50.130;8.710;2022-09-02T03:08:48;2.58;;;1.45;;
40953;SDS011;26686;50.130;8.710;2022-09-02T03:13:51;3.97;;;0.93;;
40953;SDS011;26686;50.130;8.710;2022-09-02T03:18:52;1.33;;;0.73;;
40953;SDS011;26686;50.130;8.710;2022-09-02T03:23:54;1.65;;;0.80;;
40953;SDS011;26686;50.130;8.710;2022-09-02T03:28:58;2.20;;;0.68;;
40953;SDS011;26686;50.130;8.710;2022-09-02T03:33:59;1.77;;;0.70;;
40953;SDS011;26686;50.130;8.710;2022-09-02T03:39:03;3.77;;;0.67;;
40953;SDS011;26686;50.130;8.710;2022-09-02T03:44:10;1.25;;;0.77;;
40953;SDS011;26686;50.130;8.710;2022-09-02T03:49:11;0.68;;;0.68;;
40953;SDS011;26686;50.130;8.710;2022-09-02T03:54:13;2.35;;;1.30;;
40953;SDS011;26686;50.130;8.710;2022-09-02T03:59:14;2.63;;;1.23;;
40953;SDS011;26686;50.130;8.710;2022-09-02T04:04:17;1.50;;;1.10;;
40953;SDS011;26686;50.130;8.710;2022-09-02T04:09:23;1.88;;;1.00;;
40953;SDS011;26686;50.130;8.710;2022-09-02T04:14:24;2.88;;;0.90;;
40953;SDS011;26686;50.130;8.710;2022-09-02T04:19:27;1.60;;;0.95;;
40953;SDS011;26686;50.130;8.710;2022-09-02T04:24:29;1.63;;;0.90;;
40953;SDS011;26686;50.130;8.710;2022-09-02T04:29:31;1.60;;;0.88;;
40953;SDS011;26686;50.130;8.710;2022-09-02T04:34:33;1.50;;;0.90;;
40953;SDS011;26686;50.130;8.710;2022-09-02T04:39:34;2.03;;;1.13;;
40953;SDS011;26686;50.130;8.710;2022-09-02T04:44:35;1.55;;;0.82;;
40953;SDS011;26686;50.130;8.710;2022-09-02T04:49:37;2.50;;;0.82;;
40953;SDS011;26686;50.130;8.710;2022-09-02T04:54:38;2.40;;;1.33;;
40953;SDS011;26686;50.130;8.710;2022-09-02T04:59:39;1.48;;;0.90;;
40953;SDS011;26686;50.130;8.710;2022-09-02T05:04:41;1.95;;;1.00;;
40953;SDS011;26686;50.130;8.710;2022-09-02T05:09:42;1.75;;;0.95;;
40953;SDS011;26686;50.130;8.710;2022-09-02T05:14:44;2.53;;;0.93;;
40953;SDS011;26686;50.130;8.710;2022-09-02T05:19:49;1.17;;;1.05;;
40953;SDS011;26686;50.130;8.710;2022-09-02T05:24:50;2.17;;;1.17;;
40953;SDS011;26686;50.130;8.710;2022-09-02T05:29:55;2.25;;;1.05;;
40953;SDS011;26686;50.130;8.710;2022-09-02T05:34:59;3.88;;;1.08;;
40953;SDS011;26686;50.130;8.710;2022-09-02T05:40:00;2.75;;;1.00;;
40953;SDS011;26686;50.130;8.710;2022-09-02T05:45:01;3.88;;;1.10;;
40953;SDS011;26686;50.130;8.710;2022-09-02T05:50:04;2.28;;;0.85;;
40953;SDS011;26686;50.130;8.710;2022-09-02T05:55:08;3.33;;;1.23;;
40953;SDS011;26686;50.130;8.710;2022-09-02T06:00:10;2.05;;;0.95;;
40953;SDS011;26686;50.130;8.710;2022-09-02T06:05:18;2.67;;;1.20;;
40953;SDS011;26686;50.130;8.710;2022-09-02T06:10:19;2.45;;;0.80;;
40953;SDS011;26686;50.130;8.710;2022-09-02T06:15:21;5.35;;;1.00;;
40953;SDS011;26686;50.130;8.710;2022-09-02T06:20:22;1.58;;;1.02;;
40953;SDS011;26686;50.130;8.710;2022-09-02T06:25:24;3.38;;;0.75;;
40953;SDS011;26686;50.130;8.710;2022-09-02T06:30:25;3.80;;;0.90;;
40953;SDS011;26686;50.130;8.710;2022-09-02T06:35:26;2.60;;;0.98;;
40953;SDS011;26686;50.130;8.710;2022-09-02T06:40:28;5.35;;;1.02;;
40953;SDS011;26686;50.130;8.710;2022-09-02T06:45:29;1.42;;;0.68;;
40953;SDS011;26686;50.130;8.710;2022-09-02T06:50:31;3.53;;;1.10;;
40953;SDS011;26686;50.130;8.710;2022-09-02T06:55:34;3.00;;;1.05;;
40953;SDS011;26686;50.130;8.710;2022-09-02T07:00:37;3.95;;;1.40;;
40953;SDS011;26686;50.130;8.710;2022-09-02T07:05:39;3.80;;;1.60;;
40953;SDS011;26686;50.130;8.710;2022-09-02T07:10:41;3.22;;;0.80;;
40953;SDS011;26686;50.130;8.710;2022-09-02T07:15:42;5.18;;;0.90;;
40953;SDS011;26686;50.130;8.710;2022-09-02T07:20:44;2.83;;;1.00;;
40953;SDS011;26686;50.130;8.710;2022-09-02T07:25:47;2.55;;;0.95;;
40953;SDS011;26686;50.130;8.710;2022-09-02T07:30:48;5.03;;;1.02;;
40953;SDS011;26686;50.130;8.710;2022-09-02T07:35:59;1.60;;;0.98;;
40953;SDS011;26686;50.130;8.710;2022-09-02T07:41:02;1.42;;;0.70;;
40953;SDS011;26686;50.130;8.710;2022-09-02T07:46:04;3.27;;;0.93;;
40953;SDS011;26686;50.130;8.710;2022-09-02T07:51:05;1.77;;;0.95;;
40953;SDS011;26686;50.130;8.710;2022-09-02T07:56:08;2.00;;;0.97;;
40953;SDS011;26686;50.130;8.710;2022-09-02T08:01:10;3.00;;;0.90;;
40953;SDS011;26686;50.130;8.710;2022-09-02T08:06:12;2.40;;;0.82;;
40953;SDS011;26686;50.130;8.710;2022-09-02T08:11:14;2.35;;;1.20;;
40953;SDS011;26686;50.130;8.710;2022-09-02T08:16:15;4.57;;;0.80;;
40953;SDS011;26686;50.130;8.710;2022-09-02T08:21:17;1.42;;;1.00;;
40953;SDS011;26686;50.130;8.710;2022-09-02T08:26:18;10.05;;;1.35;;
40953;SDS011;26686;50.130;8.710;2022-09-02T08:31:21;1.97;;;0.80;;
40953;SDS011;26686;50.130;8.710;2022-09-02T08:36:23;1.40;;;0.60;;
40953;SDS011;26686;50.130;8.710;2022-09-02T08:41:25;2.47;;;0.85;;
40953;SDS011;26686;50.130;8.710;2022-09-02T08:46:33;3.80;;;1.05;;
40953;SDS011;26686;50.130;8.710;2022-09-02T08:51:37;2.38;;;0.65;;
40953;SDS011;26686;50.130;8.710;2022-09-02T08:56:52;2.00;;;0.60;;
40953;SDS011;26686;50.130;8.710;2022-09-02T09:02:09;2.67;;;0.50;;
40953;SDS011;26686;50.130;8.710;2022-09-02T09:12:46;8.00;;;1.35;;
40953;SDS011;26686;50.130;8.710;2022-09-02T09:18:02;2.55;;;0.90;;
40953;SDS011;26686;50.130;8.710;2022-09-02T09:23:16;3.13;;;0.90;;
40953;SDS011;26686;50.130;8.710;2022-09-02T09:28:22;1.75;;;0.60;;
40953;SDS011;26686;50.130;8.710;2022-09-02T09:33:24;1.90;;;0.60;;
40953;SDS011;26686;50.130;8.710;2022-09-02T09:38:29;3.42;;;0.45;;
40953;SDS011;26686;50.130;8.710;2022-09-02T09:43:36;2.25;;;0.65;;
40953;SDS011;26686;50.130;8.710;2022-09-02T09:48:37;3.33;;;0.30;;
40953;SDS011;26686;50.130;8.710;2022-09-02T09:53:49;2.05;;;0.60;;
40953;SDS011;26686;50.130;8.710;2022-09-02T09:58:51;0.70;;;0.30;;
40953;SDS011;26686;50.130;8.710;2022-09-02T10:09:24;1.23;;;0.70;;
40953;SDS011;26686;50.130;8.710;2022-09-02T10:14:42;1.42;;;0.40;;
40953;SDS011;26686;50.130;8.710;2022-09-02T10:30:05;2.58;;;0.40;;
40953;SDS011;26686;50.130;8.710;2022-09-02T10:35:17;1.48;;;0.50;;
40953;SDS011;26686;50.130;8.710;2022-09-02T10:40:26;2.03;;;0.93;;
40953;SDS011;26686;50.130;8.710;2022-09-02T10:56:20;1.80;;;0.30;;
40953;SDS011;26686;50.130;8.710;2022-09-02T11:06:49;2.10;;;0.40;;
40953;SDS011;26686;50.130;8.710;2022-09-02T11:17:19;2.42;;;0.43;;
40953;SDS011;26686;50.130;8.710;2022-09-02T11:22:27;3.05;;;0.43;;
40953;SDS011;26686;50.130;8.710;2022-09-02T11:27:41;4.18;;;1.00;;
40953;SDS011;26686;50.130;8.710;2022-09-02T11:33:03;2.67;;;0.20;;
40953;SDS011;26686;50.130;8.710;2022-09-02T11:38:30;2.78;;;0.30;;
40953;SDS011;26686;50.130;8.710;2022-09-02T11:43:42;2.00;;;0.40;;
40953;SDS011;26686;50.130;8.710;2022-09-02T11:54:11;4.07;;;0.60;;
40953;SDS011;26686;50.130;8.710;2022-09-02T11:59:26;1.50;;;0.43;;
40953;SDS011;26686;50.130;8.710;2022-09-02T12:05:00;1.67;;;0.20;;
40953;SDS011;26686;50.130;8.710;2022-09-02T12:15:43;2.65;;;0.40;;
40953;SDS011;26686;50.130;8.710;2022-09-02T12:25:55;2.53;;;0.30;;
40953;SDS011;26686;50.130;8.710;2022-09-02T12:36:07;2.30;;;0.40;;
40953;SDS011;26686;50.130;8.710;2022-09-02T12:41:29;1.38;;;0.30;;
40953;SDS011;26686;50.130;8.710;2022-09-02T12:57:05;2.00;;;0.43;;
40953;SDS011;26686;50.130;8.710;2022-09-02T13:08:17;3.20;;;0.50;;
40953;SDS011;26686;50.130;8.710;2022-09-02T13:24:29;1.40;;;0.30;;
40953;SDS011;26686;50.130;8.710;2022-09-02T13:35:07;4.68;;;0.77;;
40953;SDS011;26686;50.130;8.710;2022-09-02T13:40:28;2.78;;;0.50;;
40953;SDS011;26686;50.130;8.710;2022-09-02T13:45:33;1.17;;;0.40;;
40953;SDS011;26686;50.130;8.710;2022-09-02T13:50:35;1.15;;;0.30;;
40953;SDS011;26686;50.130;8.710;2022-09-02T13:55:46;0.93;;;0.30;;
40953;SDS011;26686;50.130;8.710;2022-09-02T14:00:49;0.68;;;0.40;;
40953;SDS011;26686;50.130;8.710;2022-09-02T14:05:51;2.33;;;0.47;;
40953;SDS011;26686;50.130;8.710;2022-09-02T14:10:56;0.82;;;0.40;;
40953;SDS011;26686;50.130;8.710;2022-09-02T14:21:24;1.48;;;0.52;;
40953;SDS011;26686;50.130;8.710;2022-09-02T14:26:31;1.95;;;0.50;;
40953;SDS011;26686;50.130;8.710;2022-09-02T14:31:33;0.75;;;0.60;;
40953;SDS011;26686;50.130;8.710;2022-09-02T14:36:36;1.60;;;0.40;;
40953;SDS011;26686;50.130;8.710;2022-09-02T14:41:57;1.75;;;0.45;;
40953;SDS011;26686;50.130;8.710;2022-09-02T14:47:05;0.65;;;0.30;;
40953;SDS011;26686;50.130;8.710;2022-09-02T14:52:24;1.55;;;0.22;;
40953;SDS011;26686;50.130;8.710;2022-09-02T14:57:31;1.45;;;0.50;;
40953;SDS011;26686;50.130;8.710;2022-09-02T15:02:35;0.50;;;0.20;;
40953;SDS011;26686;50.130;8.710;2022-09-02T15:07:40;0.73;;;0.30;;
40953;SDS011;26686;50.130;8.710;2022-09-02T15:12:45;1.70;;;0.40;;
40953;SDS011;26686;50.130;8.710;2022-09-02T15:17:49;2.63;;;0.93;;
40953;SDS011;26686;50.130;8.710;2022-09-02T15:22:52;1.20;;;0.55;;
40953;SDS011;26686;50.130;8.710;2022-09-02T15:27:53;2.08;;;0.38;;
40953;SDS011;26686;50.130;8.710;2022-09-02T15:32:54;2.67;;;0.40;;
40953;SDS011;26686;50.130;8.710;2022-09-02T15:37:56;3.50;;;0.90;;
40953;SDS011;26686;50.130;8.710;2022-09-02T15:42:58;1.70;;;0.82;;
40953;SDS011;26686;50.130;8.710;2022-09-02T15:48:00;0.60;;;0.30;;
40953;SDS011;26686;50.130;8.710;2022-09-02T15:53:01;1.55;;;0.40;;
40953;SDS011;26686;50.130;8.710;2022-09-02T15:58:02;1.73;;;0.70;;
40953;SDS011;26686;50.130;8.710;2022-09-02T16:03:04;2.15;;;0.57;;
40953;SDS011;26686;50.130;8.710;2022-09-02T16:08:05;1.30;;;0.50;;
40953;SDS011;26686;50.130;8.710;2022-09-02T16:13:09;1.50;;;0.25;;
40953;SDS011;26686;50.130;8.710;2022-09-02T16:18:10;1.08;;;0.50;;
40953;SDS011;26686;50.130;8.710;2022-09-02T16:23:17;3.58;;;0.55;;
40953;SDS011;26686;50.130;8.710;2022-09-02T16:28:19;0.98;;;0.40;;
40953;SDS011;26686;50.130;8.710;2022-09-02T16:33:20;1.75;;;0.38;;
40953;SDS011;26686;50.130;8.710;2022-09-02T16:38:21;0.77;;;0.30;;
40953;SDS011;26686;50.130;8.710;2022-09-02T16:43:23;3.03;;;0.50;;
40953;SDS011;26686;50.130;8.710;2022-09-02T16:48:26;0.60;;;0.40;;
40953;SDS011;26686;50.130;8.710;2022-09-02T16:53:32;3.90;;;0.50;;
40953;SDS011;26686;50.130;8.710;2022-09-02T16:58:33;0.60;;;0.30;;
40953;SDS011;26686;50.130;8.710;2022-09-02T17:03:37;3.17;;;0.88;;
40953;SDS011;26686;50.130;8.710;2022-09-02T17:08:40;2.08;;;0.60;;
40953;SDS011;26686;50.130;8.710;2022-09-02T17:13:45;3.28;;;0.50;;
40953;SDS011;26686;50.130;8.710;2022-09-02T17:18:57;0.82;;;0.47;;
40953;SDS011;26686;50.130;8.710;2022-09-02T17:24:03;2.10;;;0.90;;
40953;SDS011;26686;50.130;8.710;2022-09-02T17:29:11;2.50;;;0.95;;
40953;SDS011;26686;50.130;8.710;2022-09-02T17:34:36;0.55;;;0.40;;
40953;SDS011;26686;50.130;8.710;2022-09-02T17:39:37;1.20;;;0.50;;
40953;SDS011;26686;50.130;8.710;2022-09-02T17:44:39;2.72;;;0.40;;
40953;SDS011;26686;50.130;8.710;2022-09-02T17:49:40;2.40;;;0.80;;
40953;SDS011;26686;50.130;8.710;2022-09-02T17:54:45;2.40;;;0.52;;
40953;SDS011;26686;50.130;8.710;2022-09-02T18:00:08;3.25;;;0.80;;
40953;SDS011;26686;50.130;8.710;2022-09-02T18:10:54;2.05;;;0.60;;
40953;SDS011;26686;50.130;8.710;2022-09-02T18:16:05;2.55;;;0.88;;
40953;SDS011;26686;50.130;8.710;2022-09-02T18:21:28;2.60;;;0.82;;
40953;SDS011;26686;50.130;8.710;2022-09-02T18:26:52;1.50;;;0.70;;
40953;SDS011;26686;50.130;8.710;2022-09-02T18:32:18;1.63;;;0.60;;
40953;SDS011;26686;50.130;8.710;2022-09-02T18:37:51;2.10;;;0.50;;
40953;SDS011;26686;50.130;8.710;2022-09-02T18:43:12;1.02;;;0.63;;
40953;SDS011;26686;50.130;8.710;2022-09-02T18:53:33;1.33;;;0.70;;
40953;SDS011;26686;50.130;8.710;2022-09-02T18:58:46;1.77;;;1.10;;
40953;SDS011;26686;50.130;8.710;2022-09-02T19:03:50;2.70;;;0.95;;
40953;SDS011;26686;50.130;8.710;2022-09-02T19:08:56;3.58;;;1.10;;
40953;SDS011;26686;50.130;8.710;2022-09-02T19:14:07;2.35;;;0.73;;
40953;SDS011;26686;50.130;8.710;2022-09-02T19:19:09;3.38;;;0.80;;
40953;SDS011;26686;50.130;8.710;2022-09-02T19:24:11;6.03;;;1.10;;
40953;SDS011;26686;50.130;8.710;2022-09-02T19:29:15;3.47;;;0.85;;
40953;SDS011;26686;50.130;8.710;2022-09-02T19:34:18;2.88;;;0.90;;
40953;SDS011;26686;50.130;8.710;2022-09-02T19:39:19;3.13;;;0.82;;
40953;SDS011;26686;50.130;8.710;2022-09-02T19:44:21;2.33;;;0.88;;
40953;SDS011;26686;50.130;8.710;2022-09-02T19:49:22;2.17;;;0.75;;
40953;SDS011;26686;50.130;8.710;2022-09-02T19:54:24;3.05;;;0.90;;
40953;SDS011;26686;50.130;8.710;2022-09-02T19:59:26;3.25;;;1.10;;
40953;SDS011;26686;50.130;8.710;2022-09-02T20:04:27;1.25;;;0.98;;
40953;SDS011;26686;50.130;8.710;2022-09-02T20:09:30;2.25;;;1.02;;
40953;SDS011;26686;50.130;8.710;2022-09-02T20:14:35;1.80;;;1.02;;
40953;SDS011;26686;50.130;8.710;2022-09-02T20:19:36;2.05;;;1.55;;
40953;SDS011;26686;50.130;8.710;2022-09-02T20:24:43;1.90;;;0.85;;
40953;SDS011;26686;50.130;8.710;2022-09-02T20:35:09;2.60;;;0.63;;
40953;SDS011;26686;50.130;8.710;2022-09-02T20:46:01;2.30;;;0.70;;
40953;SDS011;26686;50.130;8.710;2022-09-02T20:56:19;2.17;;;0.93;;
40953;SDS011;26686;50.130;8.710;2022-09-02T21:01:30;3.22;;;1.17;;
40953;SDS011;26686;50.130;8.710;2022-09-02T21:06:35;3.08;;;2.10;;
40953;SDS011;26686;50.130;8.710;2022-09-02T21:11:44;3.13;;;1.75;;
40953;SDS011;26686;50.130;8.710;2022-09-02T21:16:59;3.08;;;1.90;;
40953;SDS011;26686;50.130;8.710;2022-09-02T21:22:08;4.93;;;2.60;;
40953;SDS011;26686;50.130;8.710;2022-09-02T21:27:20;2.88;;;2.13;;
40953;SDS011;26686;50.130;8.710;2022-09-02T21:32:42;4.25;;;2.30;;
40953;SDS011;26686;50.130;8.710;2022-09-02T21:38:01;2.85;;;2.05;;
40953;SDS011;26686;50.130;8.710;2022-09-02T21:53:34;4.30;;;0.95;;
40953;SDS011;26686;50.130;8.710;2022-09-02T22:09:31;3.47;;;1.00;;
40953;SDS011;26686;50.130;8.710;2022-09-02T22:20:13;3.38;;;0.55;;
40953;SDS011;26686;50.130;8.710;2022-09-02T22:25:19;1.98;;;0.77;;
40953;SDS011;26686;50.130;8.710;2022-09-02T22:30:21;1.02;;;0.50;;
40953;SDS011;26686;50.130;8.710;2022-09-02T22:35:33;1.67;;;0.80;;
40953;SDS011;26686;50.130;8.710;2022-09-02T22:40:43;1.45;;;0.60;;
40953;SDS011;26686;50.130;8.710;2022-09-02T22:45:53;1.92;;;0.70;;
40953;SDS011;26686;50.130;8.710;2022-09-02T22:51:19;1.63;;;0.73;;
40953;SDS011;26686;50.130;8.710;2022-09-02T22:56:54;1.85;;;0.40;;
40953;SDS011;26686;50.130;8.710;2022-09-02T23:02:05;3.15;;;0.60;;
40953;SDS011;26686;50.130;8.710;2022-09-02T23:07:13;1.88;;;0.57;;
40953;SDS011;26686;50.130;8.710;2022-09-02T23:28:11;5.40;;;1.23;;
40953;SDS011;26686;50.130;8.710;2022-09-02T23:33:34;0.90;;;0.47;;
40953;SDS011;26686;50.130;8.710;2022-09-02T23:39:03;0.80;;;0.57;;
40953;SDS011;26686;50.130;8.710;2022-09-02T23:44:19;0.95;;;0.40;;
40953;SDS011;26686;50.130;8.710;2022-09-02T23:49:28;4.03;;;0.68;;
